Bremen — C6JC3 — position and weather

sailwx.info

Track history (hours):
 
Tides and Currents Weather Stations Pressure Air Temp Water Temp Dewpoint Dewpoint Depression Visibility Wind Speed Wind Dir Waves Ship Positions

Bremen

Operator: Hapag-Lloyd Container Line

Last reported at 2016-May-25 00:32 UTC. Time now 2016-May-25 01:26 UTC.
Position N 37°44' W 025°40'.

Length 111.5 m; beam 17 m; draft 4.8 m.

Type: Ship. MMSI: 308429000.

Date/timePositionNaut miles runAvg speedWind from/ knotsBaromVisibWave heightAir tempDewpointWater temp
2016-May-25 00:32N 37°44' W 025°40'0 0.0
2016-May-24 23:32N 37°44' W 025°40'0 0.0
2016-May-24 22:32N 37°44' W 025°40'0 0.0
2016-May-24 21:32N 37°44' W 025°40'0 0.0
2016-May-24 20:34N 37°44' W 025°40'0 0.2
2016-May-24 19:32N 37°44' W 025°40'0 0.0
2016-May-24 18:32N 37°44' W 025°40'0 0.0
2016-May-24 17:32N 37°44' W 025°40'0 0.0
2016-May-24 16:32N 37°44' W 025°40'0 0.0
2016-May-24 15:32N 37°44' W 025°40'0 0.0
2016-May-24 14:32N 37°44' W 025°40'0 0.0
2016-May-24 13:32N 37°44' W 025°40'0 0.0
2016-May-24 12:32N 37°44' W 025°40'0 0.0
2016-May-24 11:32N 37°44' W 025°40'0 0.0
2016-May-24 10:32N 37°44' W 025°40'0 0.0
2016-May-24 09:32N 37°44' W 025°40'0 0.0
2016-May-24 08:32N 37°44' W 025°40'0 0.0
2016-May-24 07:32N 37°44' W 025°40'1 0.6
2016-May-24 06:33N 37°44' W 025°39'7 7.4
2016-May-24 05:33N 37°39' W 025°32'8 7.7
2016-May-24 04:33N 37°33' W 025°25'8 7.7
2016-May-24 03:34N 37°28' W 025°18'8 7.7
2016-May-24 02:33N 37°23' W 025°11'8 7.9
2016-May-24 01:33N 37°17' W 025°04'8 7.7
2016-May-24 00:33N 37°12' W 024°57'8 8.0
2016-May-23 23:33N 37°07' W 024°49'8 7.8
2016-May-23 22:33N 37°02' W 024°42'8 8.0
2016-May-23 21:33N 36°57' W 024°34'9 8.7
2016-May-23 20:33N 36°52' W 024°25'10 9.9
2016-May-23 19:33N 36°46' W 024°15'1010.1
2016-May-23 18:33N 36°41' W 024°05'10 9.9
2016-May-23 17:34N 36°35' W 023°54'1010.0
2016-May-23 16:33N 36°29' W 023°44'  
2016-May-20 22:28N 28°51' W 016°07'1313.8
2016-May-20 21:33N 28°39' W 016°05'1111.2
2016-May-20 20:34N 28°28' W 016°10'4 3.7
2016-May-20 19:27N 28°28' W 016°15'0 0.0
2016-May-20 18:28N 28°28' W 016°15'0 0.0
2016-May-20 15:27N 28°28' W 016°15'0 0.0
2016-May-20 12:09N 28°28' W 016°15'0 0.0
2016-May-20 06:10N 28°28' W 016°15'1 2.2
2016-May-20 05:33N 28°28' W 016°13'  
Track history (hours):
 
Tides and Currents Weather Stations Pressure Air Temp Water Temp Dewpoint Dewpoint Depression Visibility Wind Speed Wind Dir Waves Ship Positions

Bremen

Operator: Hapag-Lloyd Container Line

Last reported at 2016-May-25 00:32 UTC. Time now 2016-May-25 01:26 UTC.
Position N 37°44' W 025°40'.

Length 111.5 m; beam 17 m; draft 4.8 m.

Type: Ship. MMSI: 308429000.

Date/timePositionNaut miles runAvg speedWind from/ knotsBaromVisibWave heightAir tempDewpointWater temp
2016-May-25 00:32N 37°44' W 025°40'0 0.0
2016-May-24 23:32N 37°44' W 025°40'0 0.0
2016-May-24 22:32N 37°44' W 025°40'0 0.0
2016-May-24 21:32N 37°44' W 025°40'0 0.0
2016-May-24 20:34N 37°44' W 025°40'0 0.2
2016-May-24 19:32N 37°44' W 025°40'0 0.0
2016-May-24 18:32N 37°44' W 025°40'0 0.0
2016-May-24 17:32N 37°44' W 025°40'0 0.0
2016-May-24 16:32N 37°44' W 025°40'0 0.0
2016-May-24 15:32N 37°44' W 025°40'0 0.0
2016-May-24 14:32N 37°44' W 025°40'0 0.0
2016-May-24 13:32N 37°44' W 025°40'0 0.0
2016-May-24 12:32N 37°44' W 025°40'0 0.0
2016-May-24 11:32N 37°44' W 025°40'0 0.0
2016-May-24 10:32N 37°44' W 025°40'0 0.0
2016-May-24 09:32N 37°44' W 025°40'0 0.0
2016-May-24 08:32N 37°44' W 025°40'0 0.0
2016-May-24 07:32N 37°44' W 025°40'1 0.6
2016-May-24 06:33N 37°44' W 025°39'7 7.4
2016-May-24 05:33N 37°39' W 025°32'8 7.7
2016-May-24 04:33N 37°33' W 025°25'8 7.7
2016-May-24 03:34N 37°28' W 025°18'8 7.7
2016-May-24 02:33N 37°23' W 025°11'8 7.9
2016-May-24 01:33N 37°17' W 025°04'8 7.7
2016-May-24 00:33N 37°12' W 024°57'8 8.0
2016-May-23 23:33N 37°07' W 024°49'8 7.8
2016-May-23 22:33N 37°02' W 024°42'8 8.0
2016-May-23 21:33N 36°57' W 024°34'9 8.7
2016-May-23 20:33N 36°52' W 024°25'10 9.9
2016-May-23 19:33N 36°46' W 024°15'1010.1
2016-May-23 18:33N 36°41' W 024°05'10 9.9
2016-May-23 17:34N 36°35' W 023°54'1010.0
2016-May-23 16:33N 36°29' W 023°44'  
2016-May-20 22:28N 28°51' W 016°07'1313.8
2016-May-20 21:33N 28°39' W 016°05'1111.2
2016-May-20 20:34N 28°28' W 016°10'4 3.7
2016-May-20 19:27N 28°28' W 016°15'0 0.0
2016-May-20 18:28N 28°28' W 016°15'0 0.0
2016-May-20 15:27N 28°28' W 016°15'0 0.0
2016-May-20 12:09N 28°28' W 016°15'0 0.0
2016-May-20 06:10N 28°28' W 016°15'1 2.2
2016-May-20 05:33N 28°28' W 016°13'  

Dump ship's entire track history